Temp: 8.3°C   Baro: 1006.5mb
  Wind: 2.0mph   Dir: NNW (342°)
  Rain: 0.0mm (0.0mm/hr)
  Solar: 76W/m2  Hum: 87%
 
Bath Spa Weather Station Historical Data
Daily Summary for March 31, 2020 Units:  Both    English   Metric
Daily Weekly Monthly Yearly Custom
  High: Low: Average:
Temperature: 55 °F /  12.8 °C 39.7 °F /  4.3 °C 46.2 °F /  7.9 °C
Dew Point: 38.7 °F /  3.7 °C 33.6 °F /  0.9 °C 36.5 °F /  2.5 °C
Humidity: 84% 50.8% 70%
Wind Speed: 14.5mph /  23.3km/h - 4.8mph /  7.7km/h
Wind Gust: 24mph /  38.6km/h - -
Wind- - ENE
Pressure: 30.51 in /  1033.1 hPa 30.39 in /  1029 hPa -
Precipitation: 0.00 in /  0 mm    
Historical Graphs
 
 
Tabular Data for March 31, 2020
Time Temperature Dew Point Pressure Wind Wind Speed Wind Gust Humidity Rainfall Rate (Hourly) solar
00:04 44.6 °F /  7 °C 37.9 °F /  3.3 °C 30.50in /  1032.7hPa NE 4.8mph /  7.7km/h 13mph /  20.9km/h 77.4% 0.01in /  0.25mm 0 W/m2
00:09 44.2 °F /  6.8 °C 37.8 °F /  3.2 °C 30.50in /  1032.7hPa NE 2.4mph /  3.9km/h 6mph /  9.7km/h 78% 0.01in /  0.25mm 0 W/m2
00:14 44.1 °F /  6.7 °C 37.8 °F /  3.2 °C 30.49in /  1032.4hPa NE 2mph /  3.2km/h 7mph /  11.3km/h 78.6% 0.01in /  0.25mm 0 W/m2
00:19 44.1 °F /  6.7 °C 38.1 °F /  3.4 °C 30.49in /  1032.4hPa ENE 0.2mph /  0.3km/h 3mph /  4.8km/h 79.6% 0.01in /  0.25mm 0 W/m2
00:24 44 °F /  6.7 °C 38.4 °F /  3.6 °C 30.49in /  1032.4hPa NNE 0.9mph /  1.4km/h 5mph /  8km/h 80.6% 0.01in /  0.25mm 0 W/m2
00:29 43.9 °F /  6.6 °C 38.5 °F /  3.6 °C 30.49in /  1032.4hPa NE 3.1mph /  5km/h 7mph /  11.3km/h 81% 0.01in /  0.25mm 0 W/m2
00:34 43.9 °F /  6.6 °C 38.7 °F /  3.7 °C 30.49in /  1032.4hPa NE 3.7mph /  6km/h 7mph /  11.3km/h 82% 0.01in /  0.25mm 0 W/m2
00:39 43.9 °F /  6.6 °C 38.7 °F /  3.7 °C 30.49in /  1032.4hPa NE 2.9mph /  4.7km/h 10mph /  16.1km/h 82% 0.01in /  0.25mm 0 W/m2
00:44 43.8 °F /  6.6 °C 38.6 °F /  3.7 °C 30.49in /  1032.4hPa NE 5.2mph /  8.4km/h 11mph /  17.7km/h 82% 0.01in /  0.25mm 0 W/m2
00:49 43.9 °F /  6.6 °C 38.7 °F /  3.7 °C 30.49in /  1032.4hPa NE 6.7mph /  10.8km/h 15mph /  24.1km/h 82% 0.01in /  0.25mm 0 W/m2
00:54 43.9 °F /  6.6 °C 38.7 °F /  3.7 °C 30.49in /  1032.4hPa ENE 5.1mph /  8.2km/h 13mph /  20.9km/h 82% 0.01in /  0.25mm 0 W/m2
00:59 43.9 °F /  6.6 °C 38.7 °F /  3.7 °C 30.49in /  1032.4hPa NE 6mph /  9.7km/h 13mph /  20.9km/h 81.8% 0.00in /  0mm 0 W/m2
01:04 43.9 °F /  6.6 °C 38.5 °F /  3.6 °C 30.49in /  1032.4hPa NE 4.4mph /  7.1km/h 8mph /  12.9km/h 81% 0.00in /  0mm 0 W/m2
01:09 43.9 °F /  6.6 °C 38.5 °F /  3.6 °C 30.49in /  1032.4hPa NNE 3.6mph /  5.8km/h 8mph /  12.9km/h 81% 0.00in /  0mm 0 W/m2
01:14 43.9 °F /  6.6 °C 38.5 °F /  3.6 °C 30.49in /  1032.4hPa NNE 4.3mph /  6.9km/h 9mph /  14.5km/h 81% 0.00in /  0mm 0 W/m2
01:19 43.9 °F /  6.6 °C 38.5 °F /  3.6 °C 30.49in /  1032.4hPa NE 5.2mph /  8.4km/h 9mph /  14.5km/h 81% 0.00in /  0mm 0 W/m2
01:24 43.9 °F /  6.6 °C 38.4 °F /  3.6 °C 30.50in /  1032.7hPa NE 7.4mph /  11.9km/h 14mph /  22.5km/h 80.8% 0.00in /  0mm 0 W/m2
01:29 43.9 °F /  6.6 °C 38.1 °F /  3.4 °C 30.49in /  1032.4hPa NE 6.6mph /  10.6km/h 15mph /  24.1km/h 80% 0.00in /  0mm 0 W/m2
01:34 43.8 °F /  6.6 °C 38 °F /  3.3 °C 30.49in /  1032.4hPa ENE 7.5mph /  12.1km/h 14mph /  22.5km/h 80% 0.00in /  0mm 0 W/m2
01:39 43.5 °F /  6.4 °C 37.6 °F /  3.1 °C 30.49in /  1032.4hPa NE 5.2mph /  8.4km/h 14mph /  22.5km/h 79.6% 0.00in /  0mm 0 W/m2
01:44 43.5 °F /  6.4 °C 37.4 °F /  3 °C 30.49in /  1032.4hPa NE 4.8mph /  7.7km/h 13mph /  20.9km/h 79% 0.00in /  0mm 0 W/m2
01:49 43.5 °F /  6.4 °C 37.4 °F /  3 °C 30.49in /  1032.4hPa NE 5.7mph /  9.2km/h 12mph /  19.3km/h 79% 0.00in /  0mm 0 W/m2
01:54 43.4 °F /  6.3 °C 37.3 °F /  2.9 °C 30.49in /  1032.4hPa ENE 2.4mph /  3.9km/h 12mph /  19.3km/h 79% 0.00in /  0mm 0 W/m2
01:59 43.3 °F /  6.3 °C 37.2 °F /  2.9 °C 30.49in /  1032.4hPa ENE 5.4mph /  8.7km/h 17mph /  27.4km/h 79% 0.00in /  0mm 0 W/m2
02:04 43.3 °F /  6.3 °C 37.2 °F /  2.9 °C 30.49in /  1032.4hPa ENE 6.6mph /  10.6km/h 15mph /  24.1km/h 79% 0.00in /  0mm 0 W/m2
02:08 43.2 °F /  6.2 °C 37 °F /  2.8 °C 30.49in /  1032.4hPa NE 4.7mph /  7.6km/h 12mph /  19.3km/h 79% 0.00in /  0mm 0 W/m2
02:14 43 °F /  6.1 °C 36.9 °F /  2.7 °C 30.49in /  1032.4hPa ENE 6mph /  9.7km/h 14mph /  22.5km/h 79% 0.00in /  0mm 0 W/m2
02:19 43 °F /  6.1 °C 36.9 °F /  2.7 °C 30.49in /  1032.4hPa ENE 2.9mph /  4.7km/h 11mph /  17.7km/h 79% 0.00in /  0mm 0 W/m2
02:24 42.8 °F /  6 °C 36.7 °F /  2.6 °C 30.49in /  1032.4hPa ENE 3.2mph /  5.1km/h 7mph /  11.3km/h 79% 0.00in /  0mm 0 W/m2
02:29 42.6 °F /  5.9 °C 36.5 °F /  2.5 °C 30.49in /  1032.4hPa ENE 3.2mph /  5.1km/h 9mph /  14.5km/h 79% 0.00in /  0mm 0 W/m2
02:34 42.6 °F /  5.9 °C 36.8 °F /  2.7 °C 30.49in /  1032.4hPa ENE 2.9mph /  4.7km/h 10mph /  16.1km/h 79.6% 0.00in /  0mm 0 W/m2
02:39 42.6 °F /  5.9 °C 36.9 °F /  2.7 °C 30.49in /  1032.4hPa ENE 3.5mph /  5.6km/h 9mph /  14.5km/h 80% 0.00in /  0mm 0 W/m2
02:44 42.6 °F /  5.9 °C 36.9 °F /  2.7 °C 30.49in /  1032.4hPa ENE 6.2mph /  10km/h 12mph /  19.3km/h 80% 0.00in /  0mm 0 W/m2
02:49 42.6 °F /  5.9 °C 36.9 °F /  2.7 °C 30.49in /  1032.4hPa East 5.8mph /  9.3km/h 12mph /  19.3km/h 80% 0.00in /  0mm 0 W/m2
02:54 42.6 °F /  5.9 °C 36.9 °F /  2.7 °C 30.49in /  1032.4hPa ENE 2.7mph /  4.3km/h 14mph /  22.5km/h 80% 0.00in /  0mm 0 W/m2
02:59 42.6 °F /  5.9 °C 36.9 °F /  2.7 °C 30.49in /  1032.4hPa NE 2.3mph /  3.7km/h 8mph /  12.9km/h 80% 0.00in /  0mm 0 W/m2
03:04 42.6 °F /  5.9 °C 36.9 °F /  2.7 °C 30.49in /  1032.4hPa East 4.5mph /  7.2km/h 14mph /  22.5km/h 80% 0.00in /  0mm 0 W/m2
03:09 42.6 °F /  5.9 °C 36.9 °F /  2.7 °C 30.49in /  1032.4hPa ENE 4.1mph /  6.6km/h 14mph /  22.5km/h 80% 0.00in /  0mm 0 W/m2
03:14 42.4 °F /  5.8 °C 36.7 °F /  2.6 °C 30.49in /  1032.4hPa NE 7.2mph /  11.6km/h 12mph /  19.3km/h 80% 0.00in /  0mm 0 W/m2
03:19 42.4 °F /  5.8 °C 36.6 °F /  2.6 °C 30.49in /  1032.4hPa ENE 2.9mph /  4.7km/h 11mph /  17.7km/h 80% 0.00in /  0mm 0 W/m2
03:24 42.2 °F /  5.7 °C 36.4 °F /  2.4 °C 30.49in /  1032.4hPa East 1.2mph /  1.9km/h 5mph /  8km/h 80% 0.00in /  0mm 0 W/m2
03:29 42.1 °F /  5.6 °C 36.3 °F /  2.4 °C 30.49in /  1032.4hPa ENE 2.8mph /  4.5km/h 8mph /  12.9km/h 80% 0.00in /  0mm 0 W/m2
03:34 41.9 °F /  5.5 °C 36.1 °F /  2.3 °C 30.49in /  1032.4hPa NE 4.8mph /  7.7km/h 11mph /  17.7km/h 80.2% 0.00in /  0mm 0 W/m2
03:39 41.7 °F /  5.4 °C 36.3 °F /  2.4 °C 30.49in /  1032.4hPa NE 2.5mph /  4km/h 8mph /  12.9km/h 81% 0.00in /  0mm 0 W/m2
03:44 41.7 °F /  5.4 °C 36.3 °F /  2.4 °C 30.49in /  1032.4hPa ENE 2.4mph /  3.9km/h 8mph /  12.9km/h 81% 0.00in /  0mm 0 W/m2
03:49 41.7 °F /  5.4 °C 36.3 °F /  2.4 °C 30.49in /  1032.4hPa NE 1.2mph /  1.9km/h 5mph /  8km/h 81% 0.00in /  0mm 0 W/m2
03:54 41.7 °F /  5.4 °C 36.3 °F /  2.4 °C 30.49in /  1032.4hPa NE 1.3mph /  2.1km/h 7mph /  11.3km/h 81% 0.00in /  0mm 0 W/m2
03:59 41.7 °F /  5.4 °C 36.3 °F /  2.4 °C 30.49in /  1032.4hPa East 4.8mph /  7.7km/h 9mph /  14.5km/h 81% 0.00in /  0mm 0 W/m2
04:04 41.7 °F /  5.4 °C 36.3 °F /  2.4 °C 30.49in /  1032.4hPa East 3.3mph /  5.3km/h 10mph /  16.1km/h 81% 0.00in /  0mm 0 W/m2
04:09 41.6 °F /  5.3 °C 36.2 °F /  2.3 °C 30.49in /  1032.4hPa NE 2.9mph /  4.7km/h 10mph /  16.1km/h 81% 0.00in /  0mm 0 W/m2
04:14 41.7 °F /  5.4 °C 36.3 °F /  2.4 °C 30.49in /  1032.4hPa NE 2.9mph /  4.7km/h 8mph /  12.9km/h 81% 0.00in /  0mm 0 W/m2
04:19 41.7 °F /  5.4 °C 36.3 °F /  2.4 °C 30.49in /  1032.4hPa East 2.9mph /  4.7km/h 8mph /  12.9km/h 81% 0.00in /  0mm 0 W/m2
04:23 41.7 °F /  5.4 °C 36.3 °F /  2.4 °C 30.49in /  1032.4hPa East 1.5mph /  2.4km/h 5mph /  8km/h 81% 0.00in /  0mm 0 W/m2
04:29 41.7 °F /  5.4 °C 36.3 °F /  2.4 °C 30.49in /  1032.4hPa ENE 1.2mph /  1.9km/h 8mph /  12.9km/h 81% 0.00in /  0mm 0 W/m2
04:34 41.7 °F /  5.4 °C 36.3 °F /  2.4 °C 30.49in /  1032.4hPa ENE 0.6mph /  1km/h 3mph /  4.8km/h 81% 0.00in /  0mm 0 W/m2
04:39 41.7 °F /  5.4 °C 36.3 °F /  2.4 °C 30.49in /  1032.4hPa ENE 3.3mph /  5.3km/h 8mph /  12.9km/h 81% 0.00in /  0mm 0 W/m2
04:44 41.7 °F /  5.4 °C 36.3 °F /  2.4 °C 30.49in /  1032.4hPa NE 6.6mph /  10.6km/h 12mph /  19.3km/h 81% 0.00in /  0mm 0 W/m2
04:49 41.7 °F /  5.4 °C 36.3 °F /  2.4 °C 30.49in /  1032.4hPa NE 3.6mph /  5.8km/h 12mph /  19.3km/h 81% 0.00in /  0mm 0 W/m2
04:54 41.7 °F /  5.4 °C 36.3 °F /  2.4 °C 30.49in /  1032.4hPa NE 6.3mph /  10.1km/h 13mph /  20.9km/h 81% 0.00in /  0mm 0 W/m2
04:59 41.7 °F /  5.4 °C 36.3 °F /  2.4 °C 30.49in /  1032.4hPa NE 4mph /  6.4km/h 13mph /  20.9km/h 81% 0.00in /  0mm 0 W/m2
05:04 41.6 °F /  5.3 °C 36.2 °F /  2.3 °C 30.49in /  1032.4hPa NE 5.1mph /  8.2km/h 12mph /  19.3km/h 81% 0.00in /  0mm 0 W/m2
05:09 41.5 °F /  5.3 °C 36.1 °F /  2.3 °C 30.49in /  1032.4hPa NE 5.2mph /  8.4km/h 11mph /  17.7km/h 81% 0.00in /  0mm 0 W/m2
05:14 41.5 °F /  5.3 °C 36.1 °F /  2.3 °C 30.49in /  1032.4hPa ENE 7.4mph /  11.9km/h 14mph /  22.5km/h 81% 0.00in /  0mm 0 W/m2
05:19 41.5 °F /  5.3 °C 36.1 °F /  2.3 °C 30.49in /  1032.4hPa NE 4.1mph /  6.6km/h 14mph /  22.5km/h 81% 0.00in /  0mm 0 W/m2
05:24 41.4 °F /  5.2 °C 36 °F /  2.2 °C 30.49in /  1032.4hPa ENE 7.5mph /  12.1km/h 15mph /  24.1km/h 81% 0.00in /  0mm 0 W/m2
05:29 41.4 °F /  5.2 °C 36 °F /  2.2 °C 30.49in /  1032.4hPa ENE 5.2mph /  8.4km/h 15mph /  24.1km/h 81% 0.00in /  0mm 0 W/m2
05:34 41.4 °F /  5.2 °C 36 °F /  2.2 °C 30.48in /  1032.1hPa ENE 5.4mph /  8.7km/h 14mph /  22.5km/h 81% 0.00in /  0mm 0 W/m2
05:39 41.4 °F /  5.2 °C 36 °F /  2.2 °C 30.49in /  1032.4hPa ENE 4.5mph /  7.2km/h 12mph /  19.3km/h 81% 0.00in /  0mm 0 W/m2
05:44 41.2 °F /  5.1 °C 35.8 °F /  2.1 °C 30.49in /  1032.4hPa ENE 4mph /  6.4km/h 12mph /  19.3km/h 81% 0.00in /  0mm 0 W/m2
05:49 41.2 °F /  5.1 °C 36.1 °F /  2.3 °C 30.49in /  1032.4hPa ENE 0.4mph /  0.6km/h 6mph /  9.7km/h 82% 0.00in /  0mm 0 W/m2
05:54 41.2 °F /  5.1 °C 36.1 °F /  2.3 °C 30.49in /  1032.4hPa ENE 7.4mph /  11.9km/h 11mph /  17.7km/h 82% 0.00in /  0mm 0 W/m2
05:59 41.2 °F /  5.1 °C 36.1 °F /  2.3 °C 30.49in /  1032.4hPa NE 7.4mph /  11.9km/h 14mph /  22.5km/h 82% 0.00in /  0mm 0 W/m2
06:04 41.2 °F /  5.1 °C 36.1 °F /  2.3 °C 30.48in /  1032.1hPa NE 9.1mph /  14.6km/h 15mph /  24.1km/h 82% 0.00in /  0mm 0 W/m2
06:09 41.2 °F /  5.1 °C 36.1 °F /  2.3 °C 30.49in /  1032.4hPa NE 5.4mph /  8.7km/h 15mph /  24.1km/h 82% 0.00in /  0mm 0 W/m2
06:14 41.2 °F /  5.1 °C 36.1 °F /  2.3 °C 30.49in /  1032.4hPa NNE 4.5mph /  7.2km/h 11mph /  17.7km/h 82% 0.00in /  0mm 0 W/m2
06:19 41.2 °F /  5.1 °C 36.1 °F /  2.3 °C 30.49in /  1032.4hPa NE 5.6mph /  9km/h 14mph /  22.5km/h 82% 0.00in /  0mm 0 W/m2
06:24 41.1 °F /  5.1 °C 36.1 °F /  2.3 °C 30.48in /  1032.1hPa NE 5.4mph /  8.7km/h 14mph /  22.5km/h 82% 0.00in /  0mm 0 W/m2
06:29 41.2 °F /  5.1 °C 36.1 °F /  2.3 °C 30.49in /  1032.4hPa NE 3.2mph /  5.1km/h 9mph /  14.5km/h 82% 0.00in /  0mm 0 W/m2
06:34 41 °F /  5 °C 36 °F /  2.2 °C 30.49in /  1032.4hPa NE 6mph /  9.7km/h 13mph /  20.9km/h 82% 0.00in /  0mm 0 W/m2
06:39 40.9 °F /  4.9 °C 35.9 °F /  2.2 °C 30.49in /  1032.4hPa NE 7mph /  11.3km/h 13mph /  20.9km/h 82% 0.00in /  0mm 0 W/m2
06:44 40.7 °F /  4.8 °C 35.7 °F /  2.1 °C 30.49in /  1032.4hPa NE 6.2mph /  10km/h 11mph /  17.7km/h 82% 0.00in /  0mm 0 W/m2
06:49 40.6 °F /  4.8 °C 35.6 °F /  2 °C 30.49in /  1032.4hPa NE 7mph /  11.3km/h 14mph /  22.5km/h 82% 0.00in /  0mm 5 W/m2
06:54 40.5 °F /  4.7 °C 35.4 °F /  1.9 °C 30.49in /  1032.4hPa ENE 3.9mph /  6.3km/h 9mph /  14.5km/h 82% 0.00in /  0mm 9 W/m2
06:59 40.5 °F /  4.7 °C 35.4 °F /  1.9 °C 30.49in /  1032.4hPa NE 2.7mph /  4.3km/h 8mph /  12.9km/h 82% 0.00in /  0mm 11 W/m2
07:04 40.3 °F /  4.6 °C 35.2 °F /  1.8 °C 30.49in /  1032.4hPa NE 5mph /  8km/h 11mph /  17.7km/h 82% 0.00in /  0mm 12 W/m2
07:09 40.2 °F /  4.6 °C 35.5 °F /  1.9 °C 30.49in /  1032.4hPa NE 3.2mph /  5.1km/h 10mph /  16.1km/h 83% 0.00in /  0mm 14 W/m2
07:14 39.9 °F /  4.4 °C 35.2 °F /  1.8 °C 30.50in /  1032.7hPa NE 4mph /  6.4km/h 10mph /  16.1km/h 83% 0.00in /  0mm 16 W/m2
07:19 39.9 °F /  4.4 °C 35.2 °F /  1.8 °C 30.50in /  1032.7hPa NE 4.6mph /  7.4km/h 11mph /  17.7km/h 83% 0.00in /  0mm 19 W/m2
07:24 39.9 °F /  4.4 °C 35.2 °F /  1.8 °C 30.50in /  1032.7hPa NNE 4.2mph /  6.8km/h 9mph /  14.5km/h 83% 0.00in /  0mm 21 W/m2
07:29 39.8 °F /  4.3 °C 35.2 °F /  1.8 °C 30.50in /  1032.7hPa NE 1.7mph /  2.7km/h 6mph /  9.7km/h 83.4% 0.00in /  0mm 23 W/m2
07:34 39.7 °F /  4.3 °C 35.2 °F /  1.8 °C 30.50in /  1032.7hPa NE 4.1mph /  6.6km/h 9mph /  14.5km/h 84% 0.00in /  0mm 26 W/m2
07:39 39.9 °F /  4.4 °C 35.4 °F /  1.9 °C 30.50in /  1032.7hPa ENE 3.9mph /  6.3km/h 9mph /  14.5km/h 84% 0.00in /  0mm 28 W/m2
07:44 39.9 °F /  4.4 °C 35.4 °F /  1.9 °C 30.50in /  1032.7hPa ENE 3.8mph /  6.1km/h 8mph /  12.9km/h 84% 0.00in /  0mm 32 W/m2
07:49 40.1 °F /  4.5 °C 35.6 °F /  2 °C 30.50in /  1032.7hPa NE 4.3mph /  6.9km/h 10mph /  16.1km/h 84% 0.00in /  0mm 32 W/m2
07:54 40.1 °F /  4.5 °C 35.6 °F /  2 °C 30.50in /  1032.7hPa NE 4.8mph /  7.7km/h 11mph /  17.7km/h 84% 0.00in /  0mm 33 W/m2
07:59 40.4 °F /  4.7 °C 35.8 °F /  2.1 °C 30.50in /  1032.7hPa ENE 3.2mph /  5.1km/h 11mph /  17.7km/h 83.4% 0.00in /  0mm 35 W/m2
08:04 40.6 °F /  4.8 °C 36 °F /  2.2 °C 30.50in /  1032.7hPa NE 3.7mph /  6km/h 9mph /  14.5km/h 83% 0.00in /  0mm 40 W/m2
08:09 40.8 °F /  4.9 °C 36 °F /  2.2 °C 30.50in /  1032.7hPa NE 4.2mph /  6.8km/h 12mph /  19.3km/h 82.6% 0.00in /  0mm 47 W/m2
08:14 41.2 °F /  5.1 °C 36.1 °F /  2.3 °C 30.50in /  1032.7hPa ENE 2.5mph /  4km/h 8mph /  12.9km/h 82% 0.00in /  0mm 58 W/m2
08:19 41.3 °F /  5.2 °C 35.9 °F /  2.2 °C 30.50in /  1032.7hPa NE 4.4mph /  7.1km/h 12mph /  19.3km/h 81% 0.00in /  0mm 74 W/m2
08:24 41.5 °F /  5.3 °C 35.8 °F /  2.1 °C 30.50in /  1032.7hPa ENE 6.8mph /  10.9km/h 12mph /  19.3km/h 80.3% 0.00in /  0mm 86 W/m2
08:29 41.9 °F /  5.5 °C 36 °F /  2.2 °C 30.50in /  1032.7hPa NE 8.1mph /  13km/h 18mph /  29km/h 79.6% 0.00in /  0mm 104 W/m2
08:34 42 °F /  5.6 °C 35.8 °F /  2.1 °C 30.50in /  1032.7hPa ENE 6.1mph /  9.8km/h 16mph /  25.7km/h 78.2% 0.00in /  0mm 116 W/m2
08:39 42.4 °F /  5.8 °C 35.9 °F /  2.2 °C 30.51in /  1033.1hPa NE 6.8mph /  10.9km/h 17mph /  27.4km/h 77.6% 0.00in /  0mm 141 W/m2
08:44 42.5 °F /  5.8 °C 35.8 °F /  2.1 °C 30.51in /  1033.1hPa ENE 7.2mph /  11.6km/h 16mph /  25.7km/h 76.8% 0.00in /  0mm 156 W/m2
08:49 42.7 °F /  5.9 °C 35.7 °F /  2.1 °C 30.51in /  1033.1hPa ENE 6.2mph /  10km/h 14mph /  22.5km/h 76% 0.00in /  0mm 172 W/m2
08:54 42.8 °F /  6 °C 35.6 °F /  2 °C 30.51in /  1033.1hPa NE 9.6mph /  15.4km/h 16mph /  25.7km/h 75.6% 0.00in /  0mm 190 W/m2
08:59 43.3 °F /  6.3 °C 36.1 °F /  2.3 °C 30.51in /  1033.1hPa ENE 4.7mph /  7.6km/h 16mph /  25.7km/h 75.5% 0.00in /  0mm 209 W/m2
09:04 43.3 °F /  6.3 °C 36 °F /  2.2 °C 30.51in /  1033.1hPa NE 6.5mph /  10.5km/h 14mph /  22.5km/h 75% 0.00in /  0mm 225 W/m2
09:09 43.4 °F /  6.3 °C 35.8 °F /  2.1 °C 30.51in /  1033.1hPa NE 8mph /  12.9km/h 16mph /  25.7km/h 74.2% 0.00in /  0mm 244 W/m2
09:14 44.1 °F /  6.7 °C 36.3 °F /  2.4 °C 30.51in /  1033.1hPa ENE 5.6mph /  9km/h 12mph /  19.3km/h 73.8% 0.00in /  0mm 262 W/m2
09:19 44.7 °F /  7.1 °C 36.4 °F /  2.4 °C 30.51in /  1033.1hPa ENE 7.5mph /  12.1km/h 14mph /  22.5km/h 72.5% 0.00in /  0mm 274 W/m2
09:24 45 °F /  7.2 °C 36.2 °F /  2.3 °C 30.51in /  1033.1hPa ENE 3.6mph /  5.8km/h 15mph /  24.1km/h 71.4% 0.00in /  0mm 290 W/m2
09:29 45.1 °F /  7.3 °C 36.2 °F /  2.3 °C 30.51in /  1033.1hPa ENE 6.4mph /  10.3km/h 18mph /  29km/h 70.6% 0.00in /  0mm 316 W/m2
09:34 45.2 °F /  7.3 °C 36.1 °F /  2.3 °C 30.51in /  1033.1hPa ENE 4.7mph /  7.6km/h 14mph /  22.5km/h 70% 0.00in /  0mm 338 W/m2
09:39 45.3 °F /  7.4 °C 36.1 °F /  2.3 °C 30.51in /  1033.1hPa ENE 5.9mph /  9.5km/h 16mph /  25.7km/h 69.8% 0.00in /  0mm 366 W/m2
09:44 45.7 °F /  7.6 °C 36.5 °F /  2.5 °C 30.51in /  1033.1hPa East 3mph /  4.8km/h 10mph /  16.1km/h 70% 0.00in /  0mm 432 W/m2
09:49 46.2 °F /  7.9 °C 37 °F /  2.8 °C 30.51in /  1033.1hPa East 6.3mph /  10.1km/h 13mph /  20.9km/h 70% 0.00in /  0mm 432 W/m2
09:54 45.4 °F /  7.4 °C 36 °F /  2.2 °C 30.51in /  1033.1hPa ENE 4.1mph /  6.6km/h 18mph /  29km/h 69.4% 0.00in /  0mm 427 W/m2
09:59 45.9 °F /  7.7 °C 36.3 °F /  2.4 °C 30.51in /  1033.1hPa East 6mph /  9.7km/h 16mph /  25.7km/h 68.6% 0.00in /  0mm 127 W/m2
10:04 46 °F /  7.8 °C 36.1 °F /  2.3 °C 30.51in /  1033.1hPa ENE 4.9mph /  7.9km/h 12mph /  19.3km/h 68% 0.00in /  0mm 454 W/m2
10:09 45.5 °F /  7.5 °C 36.1 °F /  2.3 °C 30.51in /  1033.1hPa NE 8mph /  12.9km/h 15mph /  24.1km/h 69.4% 0.00in /  0mm 243 W/m2
10:14 46 °F /  7.8 °C 37 °F /  2.8 °C 30.51in /  1033.1hPa NE 5.1mph /  8.2km/h 13mph /  20.9km/h 70.6% 0.00in /  0mm 564 W/m2
10:19 46.7 °F /  8.2 °C 37.3 °F /  2.9 °C 30.51in /  1033.1hPa ENE 10.8mph /  17.4km/h 21mph /  33.8km/h 69.4% 0.00in /  0mm 529 W/m2
10:24 46.8 °F /  8.2 °C 36.7 °F /  2.6 °C 30.51in /  1033.1hPa ESE 9mph /  14.5km/h 17mph /  27.4km/h 68% 0.00in /  0mm 575 W/m2
10:29 46.8 °F /  8.2 °C 36.7 °F /  2.6 °C 30.51in /  1033.1hPa East 7.5mph /  12.1km/h 19mph /  30.6km/h 68% 0.00in /  0mm 559 W/m2
10:34 46.7 °F /  8.2 °C 36.9 °F /  2.7 °C 30.51in /  1033.1hPa ENE 11.6mph /  18.7km/h 24mph /  38.6km/h 68.6% 0.00in /  0mm 652 W/m2
10:39 46.7 °F /  8.2 °C 36.9 °F /  2.7 °C 30.51in /  1033.1hPa East 8mph /  12.9km/h 17mph /  27.4km/h 68.6% 0.00in /  0mm 610 W/m2
10:44 46.4 °F /  8 °C 36.9 °F /  2.7 °C 30.51in /  1033.1hPa East 14.5mph /  23.3km/h 19mph /  30.6km/h 69% 0.00in /  0mm 267 W/m2
10:49 46 °F /  7.8 °C 36.9 °F /  2.7 °C 30.50in /  1032.7hPa ENE 6.4mph /  10.3km/h 18mph /  29km/h 70% 0.00in /  0mm 322 W/m2
10:54 46.2 °F /  7.9 °C 37.4 °F /  3 °C 30.50in /  1032.7hPa NE 7.4mph /  11.9km/h 13mph /  20.9km/h 71% 0.00in /  0mm 272 W/m2
10:59 46 °F /  7.8 °C 37.4 °F /  3 °C 30.50in /  1032.7hPa ENE 7.4mph /  11.9km/h 14mph /  22.5km/h 71.8% 0.00in /  0mm 332 W/m2
11:04 46.1 °F /  7.8 °C 37.5 °F /  3.1 °C 30.50in /  1032.7hPa ENE 8.4mph /  13.5km/h 16mph /  25.7km/h 71.6% 0.00in /  0mm 292 W/m2
11:09 45.8 °F /  7.7 °C 37.3 °F /  2.9 °C 30.50in /  1032.7hPa NE 8.7mph /  14km/h 16mph /  25.7km/h 71.8% 0.00in /  0mm 332 W/m2
11:14 45.9 °F /  7.7 °C 37.4 °F /  3 °C 30.50in /  1032.7hPa ENE 8.3mph /  13.4km/h 15mph /  24.1km/h 72% 0.00in /  0mm 258 W/m2
11:19 46.4 °F /  8 °C 37.8 °F /  3.2 °C 30.50in /  1032.7hPa ENE 7.2mph /  11.6km/h 14mph /  22.5km/h 71.8% 0.00in /  0mm 816 W/m2
11:24 47.6 °F /  8.7 °C 38.4 °F /  3.6 °C 30.50in /  1032.7hPa East 8mph /  12.9km/h 17mph /  27.4km/h 70.4% 0.00in /  0mm 816 W/m2
11:29 47.8 °F /  8.8 °C 38.1 °F /  3.4 °C 30.50in /  1032.7hPa East 6.6mph /  10.6km/h 12mph /  19.3km/h 69% 0.00in /  0mm 290 W/m2
11:34 47.8 °F /  8.8 °C 37.9 °F /  3.3 °C 30.49in /  1032.4hPa East 4.3mph /  6.9km/h 15mph /  24.1km/h 68.4% 0.00in /  0mm 849 W/m2
11:39 48.6 °F /  9.2 °C 38 °F /  3.3 °C 30.50in /  1032.7hPa ENE 9.2mph /  14.8km/h 16mph /  25.7km/h 66.6% 0.00in /  0mm 577 W/m2
11:44 47.7 °F /  8.7 °C 36.8 °F /  2.7 °C 30.50in /  1032.7hPa ENE 9.8mph /  15.8km/h 21mph /  33.8km/h 65.6% 0.00in /  0mm 381 W/m2
11:49 47.2 °F /  8.4 °C 36.6 °F /  2.6 °C 30.49in /  1032.4hPa NE 7mph /  11.3km/h 15mph /  24.1km/h 66.5% 0.00in /  0mm 237 W/m2
11:54 47.3 °F /  8.5 °C 37 °F /  2.8 °C 30.49in /  1032.4hPa ENE 7.6mph /  12.2km/h 13mph /  20.9km/h 67.4% 0.00in /  0mm 260 W/m2
11:59 47.7 °F /  8.7 °C 37 °F /  2.8 °C 30.49in /  1032.4hPa ENE 5.9mph /  9.5km/h 15mph /  24.1km/h 66.4% 0.00in /  0mm 281 W/m2
12:04 47.8 °F /  8.8 °C 37.3 °F /  2.9 °C 30.49in /  1032.4hPa East 6.4mph /  10.3km/h 13mph /  20.9km/h 66.8% 0.00in /  0mm 800 W/m2
12:09 48.7 °F /  9.3 °C 37.9 °F /  3.3 °C 30.49in /  1032.4hPa ESE 3.2mph /  5.1km/h 10mph /  16.1km/h 66.2% 0.00in /  0mm 847 W/m2
12:14 48.8 °F /  9.3 °C 37.8 °F /  3.2 °C 30.49in /  1032.4hPa East 7.3mph /  11.7km/h 16mph /  25.7km/h 65.5% 0.00in /  0mm 274 W/m2
12:19 48.3 °F /  9.1 °C 36.7 °F /  2.6 °C 30.49in /  1032.4hPa East 8.6mph /  13.8km/h 18mph /  29km/h 64% 0.00in /  0mm 285 W/m2
12:24 48.2 °F /  9 °C 36.5 °F /  2.5 °C 30.49in /  1032.4hPa East 8.8mph /  14.2km/h 18mph /  29km/h 63.8% 0.00in /  0mm 336 W/m2
12:29 48.5 °F /  9.2 °C 36.7 °F /  2.6 °C 30.48in /  1032.1hPa East 7.6mph /  12.2km/h 14mph /  22.5km/h 63.8% 0.00in /  0mm 292 W/m2
12:34 49.2 °F /  9.6 °C 37 °F /  2.8 °C 30.48in /  1032.1hPa East 8.6mph /  13.8km/h 18mph /  29km/h 62.6% 0.00in /  0mm 802 W/m2
12:39 49.2 °F /  9.6 °C 36.9 °F /  2.7 °C 30.48in /  1032.1hPa ESE 6.2mph /  10km/h 18mph /  29km/h 62.2% 0.00in /  0mm 322 W/m2
12:44 48.8 °F /  9.3 °C 36.9 °F /  2.7 °C 30.48in /  1032.1hPa ENE 7.4mph /  11.9km/h 14mph /  22.5km/h 63.4% 0.00in /  0mm 496 W/m2
12:49 49.8 °F /  9.9 °C 37.7 °F /  3.2 °C 30.48in /  1032.1hPa ESE 5mph /  8km/h 14mph /  22.5km/h 62.8% 0.00in /  0mm 480 W/m2
12:53 49.4 °F /  9.7 °C 37.5 °F /  3.1 °C 30.48in /  1032.1hPa ESE 6.2mph /  10km/h 12mph /  19.3km/h 63.3% 0.00in /  0mm 251 W/m2
12:59 49 °F /  9.4 °C 37.6 °F /  3.1 °C 30.48in /  1032.1hPa ENE 5.8mph /  9.3km/h 11mph /  17.7km/h 64.6% 0.00in /  0mm 265 W/m2
13:04 49.3 °F /  9.6 °C 37.7 °F /  3.2 °C 30.48in /  1032.1hPa ENE 5.2mph /  8.4km/h 13mph /  20.9km/h 64.4% 0.00in /  0mm 376 W/m2
13:09 49.5 °F /  9.7 °C 37.9 °F /  3.3 °C 30.48in /  1032.1hPa East 7.2mph /  11.6km/h 13mph /  20.9km/h 64.4% 0.00in /  0mm 257 W/m2
13:14 49.8 °F /  9.9 °C 37.6 °F /  3.1 °C 30.47in /  1031.7hPa East 6.6mph /  10.6km/h 14mph /  22.5km/h 62.8% 0.00in /  0mm 923 W/m2
13:19 51.1 °F /  10.6 °C 38.4 °F /  3.6 °C 30.47in /  1031.7hPa ENE 9.2mph /  14.8km/h 14mph /  22.5km/h 61.6% 0.00in /  0mm 923 W/m2
13:24 50.8 °F /  10.4 °C 37.5 °F /  3.1 °C 30.47in /  1031.7hPa ESE 7.2mph /  11.6km/h 14mph /  22.5km/h 60% 0.00in /  0mm 889 W/m2
13:29 50.7 °F /  10.4 °C 37.8 °F /  3.2 °C 30.47in /  1031.7hPa East 6.8mph /  10.9km/h 12mph /  19.3km/h 61% 0.00in /  0mm 846 W/m2
13:34 51.1 °F /  10.6 °C 37.9 °F /  3.3 °C 30.47in /  1031.7hPa ENE 7.2mph /  11.6km/h 17mph /  27.4km/h 60.5% 0.00in /  0mm 819 W/m2
13:39 50.6 °F /  10.3 °C 37.8 °F /  3.2 °C 30.47in /  1031.7hPa NE 7mph /  11.3km/h 19mph /  30.6km/h 61.4% 0.00in /  0mm 935 W/m2
13:44 51.8 °F /  11 °C 38.6 °F /  3.7 °C 30.47in /  1031.7hPa ENE 6.6mph /  10.6km/h 12mph /  19.3km/h 60.4% 0.00in /  0mm 279 W/m2
13:49 52.2 °F /  11.2 °C 38.6 °F /  3.7 °C 30.47in /  1031.7hPa ENE 7.6mph /  12.2km/h 16mph /  25.7km/h 59.8% 0.00in /  0mm 905 W/m2
13:54 52.3 °F /  11.3 °C 38.1 °F /  3.4 °C 30.47in /  1031.7hPa ENE 6.3mph /  10.1km/h 15mph /  24.1km/h 58.4% 0.00in /  0mm 898 W/m2
13:59 52.2 °F /  11.2 °C 38.1 °F /  3.4 °C 30.46in /  1031.4hPa NE 6.9mph /  11.1km/h 14mph /  22.5km/h 58.6% 0.00in /  0mm 823 W/m2
14:04 52.4 °F /  11.3 °C 37.3 °F /  2.9 °C 30.46in /  1031.4hPa ESE 3.6mph /  5.8km/h 14mph /  22.5km/h 56.2% 0.00in /  0mm 283 W/m2
14:09 53.1 °F /  11.7 °C 37.5 °F /  3.1 °C 30.46in /  1031.4hPa ESE 5mph /  8km/h 11mph /  17.7km/h 55.4% 0.00in /  0mm 780 W/m2
14:13 54 °F /  12.2 °C 38 °F /  3.3 °C 30.46in /  1031.4hPa ESE 6.5mph /  10.5km/h 16mph /  25.7km/h 54.5% 0.00in /  0mm 780 W/m2
14:19 54.3 °F /  12.4 °C 37.7 °F /  3.2 °C 30.46in /  1031.4hPa East 7mph /  11.3km/h 14mph /  22.5km/h 53.4% 0.00in /  0mm 731 W/m2
14:24 54.3 °F /  12.4 °C 37.5 °F /  3.1 °C 30.46in /  1031.4hPa ESE 6mph /  9.7km/h 15mph /  24.1km/h 53% 0.00in /  0mm 756 W/m2
14:29 52.7 °F /  11.5 °C 37 °F /  2.8 °C 30.45in /  1031hPa East 7.2mph /  11.6km/h 13mph /  20.9km/h 55.2% 0.00in /  0mm 236 W/m2
14:34 53.7 °F /  12.1 °C 37.7 °F /  3.2 °C 30.45in /  1031hPa ESE 6.2mph /  10km/h 14mph /  22.5km/h 54.4% 0.00in /  0mm 819 W/m2
14:39 55 °F /  12.8 °C 38 °F /  3.3 °C 30.45in /  1031hPa East 4.9mph /  7.9km/h 13mph /  20.9km/h 52.6% 0.00in /  0mm 826 W/m2
14:44 54.4 °F /  12.4 °C 37.6 °F /  3.1 °C 30.45in /  1031hPa ENE 6.4mph /  10.3km/h 18mph /  29km/h 52.8% 0.00in /  0mm 814 W/m2
14:49 53 °F /  11.7 °C 36.5 °F /  2.5 °C 30.45in /  1031hPa NE 10mph /  16.1km/h 15mph /  24.1km/h 53.4% 0.00in /  0mm 788 W/m2
14:54 53.2 °F /  11.8 °C 37.3 °F /  2.9 °C 30.45in /  1031hPa East 6.5mph /  10.5km/h 19mph /  30.6km/h 54.8% 0.00in /  0mm 826 W/m2
14:59 53.9 °F /  12.2 °C 37.3 °F /  2.9 °C 30.45in /  1031hPa ENE 9.9mph /  15.9km/h 16mph /  25.7km/h 53.2% 0.00in /  0mm 872 W/m2
15:04 52.6 °F /  11.4 °C 36.5 °F /  2.5 °C 30.45in /  1031hPa ENE 6mph /  9.7km/h 15mph /  24.1km/h 54.2% 0.00in /  0mm 264 W/m2
15:09 52.6 °F /  11.4 °C 37 °F /  2.8 °C 30.45in /  1031hPa ENE 3.2mph /  5.1km/h 12mph /  19.3km/h 55% 0.00in /  0mm 701 W/m2
15:14 53.3 °F /  11.8 °C 37 °F /  2.8 °C 30.44in /  1030.7hPa ENE 7mph /  11.3km/h 13mph /  20.9km/h 53.8% 0.00in /  0mm 701 W/m2
15:19 54 °F /  12.2 °C 37.3 °F /  2.9 °C 30.44in /  1030.7hPa ESE 4.3mph /  6.9km/h 11mph /  17.7km/h 53% 0.00in /  0mm 679 W/m2
15:24 54 °F /  12.2 °C 37.2 °F /  2.9 °C 30.44in /  1030.7hPa East 5.7mph /  9.2km/h 15mph /  24.1km/h 52.8% 0.00in /  0mm 800 W/m2
15:29 54.1 °F /  12.3 °C 37.5 °F /  3.1 °C 30.43in /  1030.4hPa East 6.2mph /  10km/h 13mph /  20.9km/h 53.2% 0.00in /  0mm 814 W/m2
15:34 54 °F /  12.2 °C 37.5 °F /  3.1 °C 30.43in /  1030.4hPa NE 5.4mph /  8.7km/h 12mph /  19.3km/h 53.6% 0.00in /  0mm 318 W/m2
15:39 51.8 °F /  11 °C 35.8 °F /  2.1 °C 30.43in /  1030.4hPa NE 7.2mph /  11.6km/h 18mph /  29km/h 54.2% 0.00in /  0mm 137 W/m2
15:44 51.8 °F /  11 °C 36.4 °F /  2.4 °C 30.43in /  1030.4hPa ESE 4.9mph /  7.9km/h 9mph /  14.5km/h 55.6% 0.00in /  0mm 610 W/m2
15:49 53.4 °F /  11.9 °C 37.3 °F /  2.9 °C 30.43in /  1030.4hPa ESE 4.5mph /  7.2km/h 10mph /  16.1km/h 54.2% 0.00in /  0mm 710 W/m2
15:54 54.2 °F /  12.3 °C 36.4 °F /  2.4 °C 30.43in /  1030.4hPa ESE 6.7mph /  10.8km/h 15mph /  24.1km/h 50.8% 0.00in /  0mm 726 W/m2
15:59 53.5 °F /  11.9 °C 36.2 °F /  2.3 °C 30.43in /  1030.4hPa ENE 5.2mph /  8.4km/h 13mph /  20.9km/h 51.8% 0.00in /  0mm 200 W/m2
16:04 52.4 °F /  11.3 °C 36.6 °F /  2.6 °C 30.42in /  1030hPa NE 7.2mph /  11.6km/h 15mph /  24.1km/h 54.8% 0.00in /  0mm 171 W/m2
16:09 52.4 °F /  11.3 °C 37.2 °F /  2.9 °C 30.42in /  1030hPa ENE 5.4mph /  8.7km/h 14mph /  22.5km/h 56% 0.00in /  0mm 605 W/m2
16:14 53.2 °F /  11.8 °C 37.5 °F /  3.1 °C 30.42in /  1030hPa ENE 8.2mph /  13.2km/h 14mph /  22.5km/h 55.2% 0.00in /  0mm 619 W/m2
16:19 53.5 °F /  11.9 °C 37.1 °F /  2.8 °C 30.42in /  1030hPa ENE 9.4mph /  15.1km/h 17mph /  27.4km/h 53.6% 0.00in /  0mm 526 W/m2
16:24 53.1 °F /  11.7 °C 36.3 °F /  2.4 °C 30.42in /  1030hPa East 8mph /  12.9km/h 13mph /  20.9km/h 53% 0.00in /  0mm 513 W/m2
16:29 53.2 °F /  11.8 °C 36.5 °F /  2.5 °C 30.42in /  1030hPa East 5.6mph /  9km/h 13mph /  20.9km/h 53% 0.00in /  0mm 561 W/m2
16:34 53.7 °F /  12.1 °C 37 °F /  2.8 °C 30.42in /  1030hPa ENE 7mph /  11.3km/h 12mph /  19.3km/h 53.2% 0.00in /  0mm 601 W/m2
16:39 53.3 °F /  11.8 °C 36.7 °F /  2.6 °C 30.42in /  1030hPa ENE 7.4mph /  11.9km/h 15mph /  24.1km/h 53.2% 0.00in /  0mm 587 W/m2
16:44 52.5 °F /  11.4 °C 36 °F /  2.2 °C 30.42in /  1030hPa ENE 6.9mph /  11.1km/h 14mph /  22.5km/h 53% 0.00in /  0mm 457 W/m2
16:49 52.4 °F /  11.3 °C 35.9 °F /  2.2 °C 30.42in /  1030hPa ENE 5.8mph /  9.3km/h 12mph /  19.3km/h 53% 0.00in /  0mm 441 W/m2
16:54 53 °F /  11.7 °C 36.4 °F /  2.4 °C 30.42in /  1030hPa ENE 3.7mph /  6km/h 11mph /  17.7km/h 53.2% 0.00in /  0mm 476 W/m2
16:59 53.4 °F /  11.9 °C 36.8 °F /  2.7 °C 30.42in /  1030hPa East 6.2mph /  10km/h 11mph /  17.7km/h 53.2% 0.00in /  0mm 496 W/m2
17:04 53.4 °F /  11.9 °C 37 °F /  2.8 °C 30.42in /  1030hPa East 5.5mph /  8.9km/h 13mph /  20.9km/h 53.5% 0.00in /  0mm 102 W/m2
17:09 52.9 °F /  11.6 °C 36.2 °F /  2.3 °C 30.42in /  1030hPa East 5.8mph /  9.3km/h 13mph /  20.9km/h 53% 0.00in /  0mm 403 W/m2
17:14 52.8 °F /  11.6 °C 36.6 °F /  2.6 °C 30.42in /  1030hPa ENE 4mph /  6.4km/h 9mph /  14.5km/h 54% 0.00in /  0mm 452 W/m2
17:19 53.2 °F /  11.8 °C 36.7 °F /  2.6 °C 30.41in /  1029.7hPa NE 6.2mph /  10km/h 17mph /  27.4km/h 53.4% 0.00in /  0mm 431 W/m2
17:24 53.1 °F /  11.7 °C 36.6 °F /  2.6 °C 30.41in /  1029.7hPa ENE 7.4mph /  11.9km/h 15mph /  24.1km/h 53.4% 0.00in /  0mm 107 W/m2
17:29 52.7 °F /  11.5 °C 36.7 °F /  2.6 °C 30.41in /  1029.7hPa ENE 4.1mph /  6.6km/h 10mph /  16.1km/h 54.4% 0.00in /  0mm 390 W/m2
17:34 53 °F /  11.7 °C 37.1 °F /  2.8 °C 30.41in /  1029.7hPa ENE 7.8mph /  12.6km/h 16mph /  25.7km/h 54.5% 0.00in /  0mm 341 W/m2
17:39 52.9 °F /  11.6 °C 36.5 °F /  2.5 °C 30.41in /  1029.7hPa ENE 7.4mph /  11.9km/h 15mph /  24.1km/h 53.8% 0.00in /  0mm 327 W/m2
17:44 52.8 °F /  11.6 °C 36.6 °F /  2.6 °C 30.41in /  1029.7hPa East 3.5mph /  5.6km/h 11mph /  17.7km/h 54% 0.00in /  0mm 302 W/m2
17:49 52.8 °F /  11.6 °C 36.6 °F /  2.6 °C 30.41in /  1029.7hPa East 7mph /  11.3km/h 12mph /  19.3km/h 54% 0.00in /  0mm 311 W/m2
17:54 52.5 °F /  11.4 °C 36.3 °F /  2.4 °C 30.41in /  1029.7hPa NE 7.8mph /  12.6km/h 15mph /  24.1km/h 54% 0.00in /  0mm 292 W/m2
17:59 52.1 °F /  11.2 °C 36.1 °F /  2.3 °C 30.41in /  1029.7hPa ENE 5.8mph /  9.3km/h 13mph /  20.9km/h 54.4% 0.00in /  0mm 234 W/m2
18:04 51.6 °F /  10.9 °C 36.1 °F /  2.3 °C 30.41in /  1029.7hPa ENE 3.5mph /  5.6km/h 11mph /  17.7km/h 55.2% 0.00in /  0mm 230 W/m2
18:09 51.9 °F /  11.1 °C 36.8 °F /  2.7 °C 30.41in /  1029.7hPa NNE 2.9mph /  4.7km/h 7mph /  11.3km/h 56% 0.00in /  0mm 227 W/m2
18:14 52.1 °F /  11.2 °C 36.7 °F /  2.6 °C 30.41in /  1029.7hPa NE 2.9mph /  4.7km/h 10mph /  16.1km/h 55.6% 0.00in /  0mm 220 W/m2
18:19 52.4 °F /  11.3 °C 36.7 °F /  2.6 °C 30.41in /  1029.7hPa East 5.7mph /  9.2km/h 11mph /  17.7km/h 54.8% 0.00in /  0mm 192 W/m2
18:24 52.1 °F /  11.2 °C 36 °F /  2.2 °C 30.41in /  1029.7hPa ENE 6.5mph /  10.5km/h 14mph /  22.5km/h 54.2% 0.00in /  0mm 42 W/m2
18:29 51.4 °F /  10.8 °C 36.1 °F /  2.3 °C 30.41in /  1029.7hPa NE 2.9mph /  4.7km/h 10mph /  16.1km/h 55.6% 0.00in /  0mm 37 W/m2
18:34 50.9 °F /  10.5 °C 36.1 °F /  2.3 °C 30.41in /  1029.7hPa NE 4.6mph /  7.4km/h 10mph /  16.1km/h 57% 0.00in /  0mm 127 W/m2
18:39 51 °F /  10.6 °C 36.3 °F /  2.4 °C 30.41in /  1029.7hPa NE 4mph /  6.4km/h 10mph /  16.1km/h 57.2% 0.00in /  0mm 127 W/m2
18:44 51.2 °F /  10.7 °C 36.5 °F /  2.5 °C 30.41in /  1029.7hPa ENE 2.3mph /  3.7km/h 10mph /  16.1km/h 57.2% 0.00in /  0mm 114 W/m2
18:49 51.6 °F /  10.9 °C 37 °F /  2.8 °C 30.41in /  1029.7hPa ENE 6.2mph /  10km/h 11mph /  17.7km/h 57.2% 0.00in /  0mm 90 W/m2
18:54 51.6 °F /  10.9 °C 36.5 °F /  2.5 °C 30.40in /  1029.3hPa ENE 4.9mph /  7.9km/h 10mph /  16.1km/h 56% 0.00in /  0mm 70 W/m2
18:59 51.5 °F /  10.8 °C 36.3 °F /  2.4 °C 30.40in /  1029.3hPa ENE 4.8mph /  7.7km/h 11mph /  17.7km/h 56% 0.00in /  0mm 62 W/m2
19:04 51.3 °F /  10.7 °C 36.5 °F /  2.5 °C 30.40in /  1029.3hPa ENE 3.2mph /  5.1km/h 9mph /  14.5km/h 57% 0.00in /  0mm 49 W/m2
19:09 51.2 °F /  10.7 °C 36.4 °F /  2.4 °C 30.40in /  1029.3hPa NE 4mph /  6.4km/h 8mph /  12.9km/h 57% 0.00in /  0mm 37 W/m2
19:14 50.6 °F /  10.3 °C 35.9 °F /  2.2 °C 30.40in /  1029.3hPa NE 5.5mph /  8.9km/h 11mph /  17.7km/h 57% 0.00in /  0mm 25 W/m2
19:19 50 °F /  10 °C 35.8 °F /  2.1 °C 30.40in /  1029.3hPa NE 2.9mph /  4.7km/h 11mph /  17.7km/h 58% 0.00in /  0mm 16 W/m2
19:24 49.7 °F /  9.8 °C 36.1 °F /  2.3 °C 30.40in /  1029.3hPa NE 3.7mph /  6km/h 7mph /  11.3km/h 59% 0.00in /  0mm 14 W/m2
19:29 49.6 °F /  9.8 °C 35.9 °F /  2.2 °C 30.40in /  1029.3hPa NE 2mph /  3.2km/h 7mph /  11.3km/h 59% 0.00in /  0mm 12 W/m2
19:34 49.2 °F /  9.6 °C 35.6 °F /  2 °C 30.40in /  1029.3hPa NE 4.6mph /  7.4km/h 9mph /  14.5km/h 59.4% 0.00in /  0mm 9 W/m2
19:39 48.8 °F /  9.3 °C 35.5 °F /  1.9 °C 30.40in /  1029.3hPa NE 3.2mph /  5.1km/h 9mph /  14.5km/h 60% 0.00in /  0mm 7 W/m2
19:44 48.5 °F /  9.2 °C 35.4 °F /  1.9 °C 30.40in /  1029.3hPa NE 2.3mph /  3.7km/h 5mph /  8km/h 60.4% 0.00in /  0mm 5 W/m2
19:49 48.4 °F /  9.1 °C 35.6 °F /  2 °C 30.40in /  1029.3hPa NNE 2.8mph /  4.5km/h 8mph /  12.9km/h 61.2% 0.00in /  0mm 0 W/m2
19:54 48.1 °F /  8.9 °C 35.7 °F /  2.1 °C 30.40in /  1029.3hPa NE 0.9mph /  1.4km/h 4mph /  6.4km/h 62% 0.00in /  0mm 0 W/m2
19:59 47.9 °F /  8.8 °C 35.7 °F /  2.1 °C 30.40in /  1029.3hPa NE 1.5mph /  2.4km/h 4mph /  6.4km/h 62.6% 0.00in /  0mm 0 W/m2
20:03 47.8 °F /  8.8 °C 35.7 °F /  2.1 °C 30.40in /  1029.3hPa NE 1mph /  1.6km/h 3mph /  4.8km/h 63% 0.00in /  0mm 0 W/m2
20:09 47.5 °F /  8.6 °C 36 °F /  2.2 °C 30.40in /  1029.3hPa NE 3.7mph /  6km/h 7mph /  11.3km/h 64% 0.00in /  0mm 0 W/m2
20:14 47.5 °F /  8.6 °C 36 °F /  2.2 °C 30.40in /  1029.3hPa NE 2.8mph /  4.5km/h 6mph /  9.7km/h 64% 0.00in /  0mm 0 W/m2
20:19 47.1 °F /  8.4 °C 36 °F /  2.2 °C 30.41in /  1029.7hPa NNE 2.8mph /  4.5km/h 6mph /  9.7km/h 65% 0.00in /  0mm 0 W/m2
20:24 46.9 °F /  8.3 °C 36 °F /  2.2 °C 30.41in /  1029.7hPa NNE 1.6mph /  2.6km/h 5mph /  8km/h 65.6% 0.00in /  0mm 0 W/m2
20:29 46.9 °F /  8.3 °C 36.1 °F /  2.3 °C 30.41in /  1029.7hPa NE 2.5mph /  4km/h 7mph /  11.3km/h 66% 0.00in /  0mm 0 W/m2
20:34 46.8 °F /  8.2 °C 36.1 °F /  2.3 °C 30.41in /  1029.7hPa NE 1.8mph /  2.9km/h 7mph /  11.3km/h 66.2% 0.00in /  0mm 0 W/m2
20:39 46.8 °F /  8.2 °C 36.1 °F /  2.3 °C 30.41in /  1029.7hPa NE 1.6mph /  2.6km/h 6mph /  9.7km/h 66.6% 0.00in /  0mm 0 W/m2
20:44 46.5 °F /  8.1 °C 36.1 °F /  2.3 °C 30.41in /  1029.7hPa NE 0.6mph /  1km/h 6mph /  9.7km/h 67% 0.00in /  0mm 0 W/m2
20:49 46.3 °F /  7.9 °C 36 °F /  2.2 °C 30.41in /  1029.7hPa NE 3.5mph /  5.6km/h 9mph /  14.5km/h 67% 0.00in /  0mm 0 W/m2
20:54 46.2 °F /  7.9 °C 36 °F /  2.2 °C 30.41in /  1029.7hPa NE 2.7mph /  4.3km/h 9mph /  14.5km/h 67% 0.00in /  0mm 0 W/m2
20:59 46 °F /  7.8 °C 36 °F /  2.2 °C 30.41in /  1029.7hPa NE 2.2mph /  3.5km/h 9mph /  14.5km/h 67.4% 0.00in /  0mm 0 W/m2
21:04 45.9 °F /  7.7 °C 36 °F /  2.2 °C 30.41in /  1029.7hPa NE 3mph /  4.8km/h 9mph /  14.5km/h 68% 0.00in /  0mm 0 W/m2
21:09 45.8 °F /  7.7 °C 35.9 °F /  2.2 °C 30.41in /  1029.7hPa NE 1.7mph /  2.7km/h 8mph /  12.9km/h 68% 0.00in /  0mm 0 W/m2
21:14 45.7 °F /  7.6 °C 35.8 °F /  2.1 °C 30.41in /  1029.7hPa NE 2.5mph /  4km/h 5mph /  8km/h 68% 0.00in /  0mm 0 W/m2
21:19 45.7 °F /  7.6 °C 35.8 °F /  2.1 °C 30.40in /  1029.3hPa ENE 3.6mph /  5.8km/h 8mph /  12.9km/h 68% 0.00in /  0mm 0 W/m2
21:24 45.5 °F /  7.5 °C 35.6 °F /  2 °C 30.40in /  1029.3hPa NE 4.1mph /  6.6km/h 8mph /  12.9km/h 68% 0.00in /  0mm 0 W/m2
21:29 45.3 °F /  7.4 °C 35.4 °F /  1.9 °C 30.40in /  1029.3hPa NNE 1.2mph /  1.9km/h 5mph /  8km/h 68% 0.00in /  0mm 0 W/m2
21:34 45.1 °F /  7.3 °C 35.2 °F /  1.8 °C 30.40in /  1029.3hPa NE 2.5mph /  4km/h 7mph /  11.3km/h 68% 0.00in /  0mm 0 W/m2
21:39 45.1 °F /  7.3 °C 35.2 °F /  1.8 °C 30.40in /  1029.3hPa NE 1.9mph /  3.1km/h 7mph /  11.3km/h 68% 0.00in /  0mm 0 W/m2
21:44 45 °F /  7.2 °C 35.3 °F /  1.8 °C 30.40in /  1029.3hPa ENE 1.8mph /  2.9km/h 6mph /  9.7km/h 68.4% 0.00in /  0mm 0 W/m2
21:49 44.9 °F /  7.2 °C 35.2 °F /  1.8 °C 30.40in /  1029.3hPa NE 3.8mph /  6.1km/h 8mph /  12.9km/h 68.8% 0.00in /  0mm 0 W/m2
21:54 44.8 °F /  7.1 °C 35.2 °F /  1.8 °C 30.40in /  1029.3hPa NE 2.9mph /  4.7km/h 8mph /  12.9km/h 69% 0.00in /  0mm 0 W/m2
21:58 44.8 °F /  7.1 °C 35.2 °F /  1.8 °C 30.40in /  1029.3hPa ENE 2.2mph /  3.5km/h 9mph /  14.5km/h 69% 0.00in /  0mm 0 W/m2
22:04 44.6 °F /  7 °C 35.1 °F /  1.7 °C 30.40in /  1029.3hPa ENE 2.7mph /  4.3km/h 8mph /  12.9km/h 69% 0.00in /  0mm 0 W/m2
22:09 44.5 °F /  6.9 °C 35 °F /  1.7 °C 30.40in /  1029.3hPa ENE 2mph /  3.2km/h 9mph /  14.5km/h 69% 0.00in /  0mm 0 W/m2
22:14 44.3 °F /  6.8 °C 35 °F /  1.7 °C 30.40in /  1029.3hPa NE 2.8mph /  4.5km/h 7mph /  11.3km/h 69.6% 0.00in /  0mm 0 W/m2
22:19 44.2 °F /  6.8 °C 35 °F /  1.7 °C 30.40in /  1029.3hPa NE 1mph /  1.6km/h 3mph /  4.8km/h 70% 0.00in /  0mm 0 W/m2
22:24 44 °F /  6.7 °C 34.8 °F /  1.6 °C 30.40in /  1029.3hPa NE 1.7mph /  2.7km/h 4mph /  6.4km/h 70% 0.00in /  0mm 0 W/m2
22:29 43.8 °F /  6.6 °C 35 °F /  1.7 °C 30.40in /  1029.3hPa NE 0.9mph /  1.4km/h 5mph /  8km/h 71% 0.00in /  0mm 0 W/m2
22:34 43.5 °F /  6.4 °C 34.7 °F /  1.5 °C 30.40in /  1029.3hPa NE 1.6mph /  2.6km/h 5mph /  8km/h 71% 0.00in /  0mm 0 W/m2
22:39 43.4 °F /  6.3 °C 34.6 °F /  1.4 °C 30.40in /  1029.3hPa NNE 1.2mph /  1.9km/h 5mph /  8km/h 71% 0.00in /  0mm 0 W/m2
22:44 43.3 °F /  6.3 °C 34.8 °F /  1.6 °C 30.40in /  1029.3hPa East 1.5mph /  2.4km/h 6mph /  9.7km/h 72% 0.00in /  0mm 0 W/m2
22:49 43.2 °F /  6.2 °C 34.7 °F /  1.5 °C 30.40in /  1029.3hPa NE 1.5mph /  2.4km/h 5mph /  8km/h 72% 0.00in /  0mm 0 W/m2
22:54 43 °F /  6.1 °C 34.5 °F /  1.4 °C 30.40in /  1029.3hPa ENE 0.4mph /  0.6km/h 3mph /  4.8km/h 72% 0.00in /  0mm 0 W/m2
22:59 42.8 °F /  6 °C 34.5 °F /  1.4 °C 30.40in /  1029.3hPa NE 1.3mph /  2.1km/h 4mph /  6.4km/h 72.6% 0.00in /  0mm 0 W/m2
23:04 42.8 °F /  6 °C 34.7 °F /  1.5 °C 30.40in /  1029.3hPa North 0.2mph /  0.3km/h 5mph /  8km/h 73% 0.00in /  0mm 0 W/m2
23:09 42.6 °F /  5.9 °C 34.5 °F /  1.4 °C 30.40in /  1029.3hPa NNE 1mph /  1.6km/h 5mph /  8km/h 73% 0.00in /  0mm 0 W/m2
23:14 42.6 °F /  5.9 °C 34.5 °F /  1.4 °C 30.40in /  1029.3hPa NE 2.3mph /  3.7km/h 8mph /  12.9km/h 73% 0.00in /  0mm 0 W/m2
23:19 42.6 °F /  5.9 °C 34.5 °F /  1.4 °C 30.40in /  1029.3hPa ENE 1.8mph /  2.9km/h 8mph /  12.9km/h 73% 0.00in /  0mm 0 W/m2
23:24 42.6 °F /  5.9 °C 34.5 °F /  1.4 °C 30.40in /  1029.3hPa ENE 1.4mph /  2.3km/h 5mph /  8km/h 73% 0.00in /  0mm 0 W/m2
23:29 42.6 °F /  5.9 °C 34.5 °F /  1.4 °C 30.40in /  1029.3hPa ENE 2.7mph /  4.3km/h 9mph /  14.5km/h 73% 0.00in /  0mm 0 W/m2
23:34 42.5 °F /  5.8 °C 34.4 °F /  1.3 °C 30.40in /  1029.3hPa ENE 1.2mph /  1.9km/h 5mph /  8km/h 73% 0.00in /  0mm 0 W/m2
23:39 42.3 °F /  5.7 °C 34.2 °F /  1.2 °C 30.40in /  1029.3hPa NE 0.2mph /  0.3km/h 4mph /  6.4km/h 73% 0.00in /  0mm 0 W/m2
23:44 42 °F /  5.6 °C 34 °F /  1.1 °C 30.39in /  1029hPa NE 0.8mph /  1.3km/h 3mph /  4.8km/h 73.2% 0.00in /  0mm 0 W/m2
23:49 41.7 °F /  5.4 °C 34 °F /  1.1 °C 30.39in /  1029hPa NE 1.4mph /  2.3km/h 6mph /  9.7km/h 74% 0.00in /  0mm 0 W/m2
23:54 41.5 °F /  5.3 °C 33.8 °F /  1 °C 30.39in /  1029hPa Calm   3mph /  4.8km/h 74% 0.00in /  0mm 0 W/m2
23:59 41.4 °F /  5.2 °C 33.6 °F /  0.9 °C 30.39in /  1029hPa ENE 1mph /  1.6km/h 3mph /  4.8km/h 74% 0.00in /  0mm 0 W/m2
Bath Spa Weather
Compliments of Weather Underground - 2 mb